Time;durP1;ratioP1;P1;durP2;ratioP2;P2;SDS_P1;SDS_P2;PMS_P1;PMS_P2;Temp;Humidity;BMP_temperature;BMP_pressure;BME280_temperature;BME280_humidity;BME280_pressure;Samples;Min_cycle;Max_cycle;Signal;HPM_P1;HPM_P2
2022/12/15 00:39:23;;;;;;;7.50;3.83;;;-0.10;99.90;;;;;;5039087;28;20035;-71
2022/12/15 00:41:49;;;;;;;9.68;4.70;;;0.00;99.90;;;;;;5041449;28;20459;-70
2022/12/15 00:44:15;;;;;;;10.13;5.53;;;-0.20;99.90;;;;;;5034756;28;20026;-71
2022/12/15 00:46:55;;;;;;;10.38;4.93;;;-0.20;99.90;;;;;;5035881;28;20049;-71
2022/12/15 01:22:21;;;;;;;11.98;5.47;;;-0.10;99.90;;;;;;5043352;28;20513;-71
2022/12/15 01:24:47;;;;;;;9.60;5.10;;;0.00;99.90;;;;;;5036802;28;20037;-71
2022/12/15 01:27:13;;;;;;;7.68;3.80;;;-0.10;99.90;;;;;;5033115;28;20467;-71
2022/12/15 01:29:38;;;;;;;7.88;4.63;;;-0.30;99.90;;;;;;5042825;28;20033;-70
2022/12/15 01:32:04;;;;;;;7.13;3.22;;;-0.30;99.90;;;;;;5031186;28;20034;-70
2022/12/15 01:34:30;;;;;;;8.87;3.73;;;-0.30;99.90;;;;;;5028640;28;20124;-70
2022/12/15 01:36:55;;;;;;;6.65;3.00;;;-0.30;99.90;;;;;;5036952;28;20034;-71
2022/12/15 01:39:21;;;;;;;8.52;3.42;;;-0.30;99.90;;;;;;5030990;28;20471;-71
2022/12/15 01:41:47;;;;;;;9.65;4.05;;;-0.20;99.90;;;;;;5039099;28;20114;-71
2022/12/15 01:44:15;;;;;;;5.95;3.35;;;-0.20;99.90;;;;;;5039953;28;20650;-71
2022/12/15 01:46:41;;;;;;;7.43;3.45;;;-0.20;99.90;;;;;;5035777;28;20084;-71
2022/12/15 01:49:19;;;;;;;5.55;2.63;;;-0.20;99.90;;;;;;5035655;28;20057;-71
2022/12/15 01:51:52;;;;;;;6.53;3.00;;;-0.50;99.90;;;;;;5040868;28;20961;-71
2022/12/15 01:54:34;;;;;;;9.10;3.33;;;-0.20;99.90;;;;;;5038540;28;20033;-71
2022/12/15 01:57:06;;;;;;;6.90;3.40;;;-0.10;99.90;;;;;;5038778;28;20033;-71
2022/12/15 01:59:47;;;;;;;5.35;3.20;;;-0.10;99.90;;;;;;5041520;28;20057;-71
2022/12/15 02:02:14;;;;;;;10.57;3.60;;;-0.20;99.90;;;;;;5019841;28;20451;-71
2022/12/15 02:04:40;;;;;;;6.75;2.85;;;-0.30;99.90;;;;;;5028916;28;20815;-71
2022/12/15 02:07:11;;;;;;;7.43;3.63;;;-0.20;99.90;;;;;;5036032;28;20030;-71
2022/12/15 02:09:37;;;;;;;5.55;2.70;;;-0.20;99.90;;;;;;5031361;28;20037;-71
2022/12/15 02:12:11;;;;;;;6.80;3.70;;;-0.40;99.90;;;;;;5045124;28;20372;-71
2022/12/15 02:15:05;;;;;;;5.75;2.63;;;-0.30;99.90;;;;;;5028189;28;20069;-71
2022/12/15 02:17:33;;;;;;;7.10;3.13;;;-0.20;99.90;;;;;;5038689;28;20029;-71
2022/12/15 02:20:25;;;;;;;6.25;2.95;;;-0.30;99.90;;;;;;5028852;28;20033;-71
2022/12/15 02:23:15;;;;;;;5.25;2.55;;;-0.40;99.90;;;;;;5005909;28;20491;-71
2022/12/15 02:25:44;;;;;;;7.00;2.90;;;-0.60;99.90;;;;;;5041761;28;20033;-71
2022/12/15 02:28:30;;;;;;;5.57;2.92;;;-0.50;99.90;;;;;;5038048;28;20036;-71
2022/12/15 02:33:56;;;;;;;6.72;3.17;;;-0.50;99.90;;;;;;5029940;28;20040;-71
2022/12/15 02:36:31;;;;;;;6.25;2.78;;;-0.60;99.90;;;;;;5038399;28;20102;-70
2022/12/15 02:38:57;;;;;;;5.40;2.72;;;-0.40;99.90;;;;;;5037826;28;20072;-70
2022/12/15 02:41:50;;;;;;;6.85;2.83;;;-0.30;99.90;;;;;;5033988;28;20114;-71
2022/12/15 02:44:19;;;;;;;5.97;2.70;;;-0.30;99.90;;;;;;5041854;28;20041;-71
2022/12/15 02:47:13;;;;;;;5.53;2.90;;;-0.30;99.90;;;;;;5039402;28;20057;-71
2022/12/15 02:50:09;;;;;;;7.00;2.90;;;-0.50;99.90;;;;;;4996580;28;20041;-71
2022/12/15 02:53:18;;;;;;;6.75;3.60;;;-0.40;99.90;;;;;;5034078;28;20474;-71
2022/12/15 02:55:56;;;;;;;7.63;3.53;;;-0.20;99.90;;;;;;5035749;28;20056;-71
2022/12/15 02:58:31;;;;;;;7.80;3.67;;;0.00;99.90;;;;;;5029455;28;20478;-71
2022/12/15 03:01:05;;;;;;;7.10;3.40;;;0.00;99.90;;;;;;5031220;28;20545;-71
2022/12/15 03:03:33;;;;;;;6.95;3.90;;;-0.20;99.90;;;;;;5030330;28;20033;-71
2022/12/15 03:06:01;;;;;;;7.07;2.90;;;-0.20;99.90;;;;;;5040835;28;20029;-71
2022/12/15 03:08:27;;;;;;;5.60;2.90;;;-0.40;99.90;;;;;;5034716;28;20086;-71
2022/12/15 03:10:55;;;;;;;6.43;3.42;;;-0.30;99.90;;;;;;5038399;28;20040;-71
2022/12/15 03:13:20;;;;;;;9.93;3.17;;;-0.30;99.90;;;;;;5039309;28;20087;-71
2022/12/15 03:15:46;;;;;;;5.93;3.00;;;-0.20;99.90;;;;;;5033254;28;20363;-71
2022/12/15 03:18:12;;;;;;;6.40;2.65;;;-0.10;99.90;;;;;;5034323;28;20029;-71
2022/12/15 03:20:37;;;;;;;9.27;3.97;;;-0.40;99.90;;;;;;5045114;28;20036;-71
2022/12/15 03:23:03;;;;;;;5.72;3.25;;;-0.40;99.90;;;;;;5036576;28;20052;-71
2022/12/15 03:25:29;;;;;;;8.52;3.35;;;-0.30;99.90;;;;;;5040286;28;20044;-71
2022/12/15 03:27:55;;;;;;;8.43;3.72;;;-0.30;99.90;;;;;;5034385;28;20038;-72
2022/12/15 03:30:21;;;;;;;6.78;4.03;;;-0.20;99.90;;;;;;5047760;28;20036;-71
2022/12/15 03:32:46;;;;;;;7.15;3.67;;;-0.30;99.90;;;;;;5038637;28;20067;-70
2022/12/15 03:35:12;;;;;;;9.43;4.50;;;-0.30;99.90;;;;;;5047162;28;20040;-71
2022/12/15 03:37:39;;;;;;;6.53;3.75;;;-0.40;99.90;;;;;;5036381;28;20033;-71
2022/12/15 03:40:06;;;;;;;8.27;3.67;;;-0.50;99.90;;;;;;5049314;28;20713;-71
2022/12/15 03:42:47;;;;;;;6.50;2.88;;;-0.50;99.90;;;;;;5046372;28;20108;-71
2022/12/15 03:45:17;;;;;;;6.13;3.38;;;-0.70;99.90;;;;;;5039125;28;20040;-71
2022/12/15 03:47:44;;;;;;;7.20;3.88;;;-0.60;99.90;;;;;;5040825;28;20062;-71
2022/12/15 03:50:12;;;;;;;7.47;3.28;;;-0.60;99.90;;;;;;5031095;28;20028;-71
2022/12/15 03:52:37;;;;;;;5.78;3.42;;;-0.70;99.90;;;;;;5033965;28;20025;-71
2022/12/15 03:55:04;;;;;;;10.02;3.95;;;-0.80;99.90;;;;;;5042677;28;20036;-71
2022/12/15 03:57:30;;;;;;;7.22;3.72;;;-0.80;99.90;;;;;;5038994;28;20032;-71
2022/12/15 03:59:56;;;;;;;7.22;3.53;;;-0.80;99.90;;;;;;5037984;28;20048;-71
2022/12/15 04:02:21;;;;;;;10.52;4.68;;;-0.90;99.90;;;;;;5033003;28;20029;-71
2022/12/15 04:04:47;;;;;;;8.38;4.32;;;-1.10;99.90;;;;;;5026271;28;20041;-70
2022/12/15 04:07:13;;;;;;;9.93;3.83;;;-1.20;99.90;;;;;;5038230;28;20771;-71
2022/12/15 04:09:39;;;;;;;8.00;3.92;;;-1.20;99.90;;;;;;5025584;28;20053;-71
2022/12/15 04:12:05;;;;;;;4.82;3.00;;;-1.10;99.90;;;;;;5033592;28;20451;-71
2022/12/15 04:14:31;;;;;;;6.22;3.40;;;-1.20;99.90;;;;;;5037688;28;20467;-71
2022/12/15 04:16:57;;;;;;;6.82;3.30;;;-1.20;99.90;;;;;;5037542;28;20094;-71
2022/12/15 04:22:07;;;;;;;7.25;2.55;;;-1.20;99.90;;;;;;5026392;28;20052;-71
2022/12/15 05:33:07;;;;;;;5.57;3.27;;;-1.20;99.90;;;;;;5024979;28;20067;-70
2022/12/15 05:35:33;;;;;;;6.90;3.47;;;-1.30;99.90;;;;;;5025253;28;20040;-70
2022/12/15 05:37:58;;;;;;;10.85;6.20;;;-1.20;99.90;;;;;;5028718;28;20035;-70
2022/12/15 05:40:24;;;;;;;6.85;3.78;;;-1.10;99.90;;;;;;5034408;28;20463;-70
2022/12/15 05:42:49;;;;;;;7.00;3.85;;;-1.10;99.90;;;;;;5030610;28;20059;-70
2022/12/15 05:45:15;;;;;;;7.45;4.15;;;-1.10;99.90;;;;;;5032787;28;20400;-71
2022/12/15 05:47:41;;;;;;;6.30;3.08;;;-1.00;99.90;;;;;;5034518;28;20049;-71
2022/12/15 05:50:07;;;;;;;7.53;3.53;;;-1.00;99.90;;;;;;5031179;28;21924;-70
2022/12/15 05:52:33;;;;;;;6.28;3.30;;;-1.00;99.90;;;;;;5024846;28;20028;-70
2022/12/15 05:54:58;;;;;;;4.95;3.05;;;-1.00;99.90;;;;;;5025837;28;20025;-70
2022/12/15 05:57:24;;;;;;;6.53;3.10;;;-0.90;99.90;;;;;;5025309;28;20025;-70
2022/12/15 05:59:49;;;;;;;5.47;3.45;;;-0.90;99.90;;;;;;5022459;28;20033;-71
2022/12/15 06:02:15;;;;;;;15.65;7.32;;;-0.80;99.90;;;;;;5033077;28;20114;-70
2022/12/15 06:04:41;;;;;;;15.38;6.82;;;-0.80;99.90;;;;;;5028542;28;20379;-71
2022/12/15 06:07:06;;;;;;;8.07;4.28;;;-0.80;99.90;;;;;;5021100;28;20036;-70
2022/12/15 06:09:32;;;;;;;9.23;4.25;;;-0.90;99.90;;;;;;5029705;28;20037;-71
2022/12/15 06:11:58;;;;;;;9.13;4.65;;;-1.00;99.90;;;;;;5029174;28;20030;-71
2022/12/15 06:14:23;;;;;;;12.00;6.80;;;-0.90;99.90;;;;;;5040847;28;20028;-70
2022/12/15 06:16:49;;;;;;;9.40;5.75;;;-0.80;99.90;;;;;;5022954;28;20108;-70
2022/12/15 06:19:14;;;;;;;7.65;4.43;;;-0.80;99.90;;;;;;5021589;28;20108;-71
2022/12/15 06:21:40;;;;;;;6.72;3.17;;;-0.80;99.90;;;;;;5033244;28;20108;-71
2022/12/15 06:24:06;;;;;;;7.30;3.80;;;-0.90;99.90;;;;;;5032595;28;20057;-70
2022/12/15 06:26:35;;;;;;;9.15;3.97;;;-1.10;99.90;;;;;;5036761;28;20037;-70
2022/12/15 06:29:02;;;;;;;6.65;3.88;;;-0.90;99.90;;;;;;5033348;28;20034;-71
2022/12/15 06:31:29;;;;;;;7.95;3.92;;;-1.00;99.90;;;;;;5019920;28;20557;-72
2022/12/15 06:33:55;;;;;;;7.13;4.13;;;-1.00;99.90;;;;;;5027875;28;20040;-70
2022/12/15 06:36:24;;;;;;;8.63;4.40;;;-0.90;99.90;;;;;;5022607;28;20042;-70
2022/12/15 06:38:51;;;;;;;8.38;5.70;;;-0.90;99.90;;;;;;5037572;28;20083;-70
2022/12/15 06:41:18;;;;;;;8.53;4.50;;;-0.80;99.90;;;;;;5029924;28;20112;-71
2022/12/15 06:43:52;;;;;;;8.68;4.20;;;-0.70;99.90;;;;;;5029459;28;20605;-71
2022/12/15 06:46:18;;;;;;;7.57;4.40;;;-0.60;99.90;;;;;;5033093;28;20053;-70
2022/12/15 06:48:45;;;;;;;11.48;6.13;;;-0.50;99.90;;;;;;5027300;28;20033;-71
2022/12/15 06:51:12;;;;;;;8.93;5.07;;;-0.50;99.90;;;;;;5032079;28;20150;-70
2022/12/15 06:53:39;;;;;;;10.98;4.40;;;-0.50;99.90;;;;;;5038535;28;20490;-70
2022/12/15 06:56:13;;;;;;;8.23;3.63;;;-0.50;99.90;;;;;;5032074;28;20262;-70
2022/12/15 06:58:39;;;;;;;9.37;4.33;;;-0.50;99.90;;;;;;5027853;28;20087;-70
2022/12/15 07:01:06;;;;;;;13.15;5.65;;;-0.50;99.90;;;;;;5025011;28;20279;-71
2022/12/15 07:03:33;;;;;;;9.48;5.03;;;-0.50;99.90;;;;;;5030841;28;20026;-72
2022/12/15 07:06:04;;;;;;;9.38;5.05;;;-0.50;99.90;;;;;;5030936;28;20041;-71
2022/12/15 07:08:30;;;;;;;9.60;4.55;;;-0.60;99.90;;;;;;5035588;28;20072;-70
2022/12/15 07:10:56;;;;;;;6.10;3.55;;;-0.50;99.90;;;;;;5024409;28;20053;-70
2022/12/15 07:13:22;;;;;;;7.20;3.60;;;-0.40;99.90;;;;;;5033192;28;20042;-70
2022/12/15 07:15:48;;;;;;;8.07;4.17;;;-0.40;99.90;;;;;;5026418;28;20109;-71
2022/12/15 07:18:15;;;;;;;8.70;4.18;;;-0.50;99.90;;;;;;5038879;28;20040;-70
2022/12/15 07:20:41;;;;;;;6.72;3.83;;;-0.30;99.90;;;;;;5036370;28;20458;-70
2022/12/15 07:23:08;;;;;;;9.05;4.45;;;-0.20;99.90;;;;;;5026722;28;20176;-70
2022/12/15 07:25:38;;;;;;;7.35;3.60;;;-0.50;99.90;;;;;;5036312;28;20535;-71
2022/12/15 07:28:04;;;;;;;8.38;3.92;;;-0.50;99.90;;;;;;5028794;28;20033;-70
2022/12/15 07:30:31;;;;;;;7.25;3.47;;;-0.40;99.90;;;;;;5028708;28;20029;-70
2022/12/15 07:32:57;;;;;;;7.15;3.85;;;-0.30;99.90;;;;;;5036377;28;20060;-69
2022/12/15 07:35:23;;;;;;;16.40;4.88;;;-0.20;99.90;;;;;;5036259;28;20033;-69
2022/12/15 07:37:49;;;;;;;12.32;6.40;;;-0.10;99.90;;;;;;5034217;28;20060;-70
2022/12/15 07:40:15;;;;;;;13.27;7.28;;;-0.30;99.90;;;;;;5024190;28;20059;-70
2022/12/15 07:42:41;;;;;;;8.13;4.40;;;-0.50;99.90;;;;;;5029172;28;20033;-69
2022/12/15 07:45:07;;;;;;;7.43;4.30;;;0.00;99.90;;;;;;5028535;28;20037;-70
2022/12/15 07:47:34;;;;;;;10.75;5.60;;;0.00;99.90;;;;;;5025738;28;20045;-70
2022/12/15 07:50:00;;;;;;;14.00;6.50;;;0.10;99.90;;;;;;5030352;28;20025;-69
2022/12/15 07:52:26;;;;;;;14.35;7.55;;;-0.10;99.90;;;;;;5031250;28;20095;-70
2022/12/15 07:54:52;;;;;;;13.77;7.55;;;-0.30;99.90;;;;;;5030127;28;20029;-69
2022/12/15 07:57:18;;;;;;;13.02;6.72;;;-0.30;99.90;;;;;;5026286;28;20033;-69
2022/12/15 07:59:44;;;;;;;14.30;7.57;;;-0.20;99.90;;;;;;5033430;28;20452;-70
2022/12/15 08:02:10;;;;;;;12.63;6.82;;;-0.10;99.90;;;;;;5030708;28;20043;-70
2022/12/15 08:04:37;;;;;;;15.85;7.90;;;0.00;99.90;;;;;;5035180;28;20466;-69
2022/12/15 08:07:03;;;;;;;12.52;5.97;;;0.20;99.90;;;;;;5035673;28;20030;-70
2022/12/15 08:09:30;;;;;;;8.88;5.63;;;0.20;99.90;;;;;;5028548;28;20368;-69
2022/12/15 08:11:56;;;;;;;12.10;5.80;;;0.20;99.90;;;;;;5022885;28;20025;-69
2022/12/15 08:14:21;;;;;;;11.55;6.22;;;0.20;99.90;;;;;;5031057;28;20023;-69
2022/12/15 08:16:47;;;;;;;11.02;5.28;;;0.10;99.90;;;;;;5037035;28;20086;-69
2022/12/15 08:19:14;;;;;;;12.27;6.18;;;0.10;99.90;;;;;;5033453;28;20059;-69
2022/12/15 08:21:41;;;;;;;12.32;5.97;;;0.20;99.90;;;;;;5030820;28;20041;-69
2022/12/15 08:24:08;;;;;;;12.75;6.70;;;0.20;99.90;;;;;;5025232;28;20059;-69
2022/12/15 08:26:34;;;;;;;11.85;6.30;;;0.40;99.90;;;;;;5028454;28;20088;-69
2022/12/15 08:29:02;;;;;;;14.75;8.32;;;0.40;99.90;;;;;;5039378;28;20525;-69
2022/12/15 08:31:30;;;;;;;20.08;9.48;;;0.30;99.90;;;;;;5037849;28;20028;-69
2022/12/15 08:33:56;;;;;;;16.83;8.60;;;0.10;99.90;;;;;;5029675;28;20066;-69
2022/12/15 08:36:22;;;;;;;13.25;8.10;;;0.10;99.90;;;;;;5036213;28;20037;-69
2022/12/15 08:38:48;;;;;;;16.60;9.27;;;0.10;99.90;;;;;;5033494;28;20101;-70
2022/12/15 08:41:13;;;;;;;14.85;8.18;;;0.20;99.90;;;;;;5035983;28;20094;-69
2022/12/15 08:43:40;;;;;;;11.80;6.45;;;0.30;99.90;;;;;;5044174;28;20604;-69
2022/12/15 08:46:06;;;;;;;14.63;6.88;;;0.40;99.90;;;;;;5033928;28;20060;-69
2022/12/15 08:48:33;;;;;;;12.80;7.00;;;0.40;99.90;;;;;;5032884;28;20947;-69
2022/12/15 08:50:59;;;;;;;15.20;7.85;;;0.50;99.90;;;;;;5035946;28;20032;-69
2022/12/15 08:53:25;;;;;;;14.13;7.18;;;0.60;99.90;;;;;;5033290;28;20050;-69
2022/12/15 08:55:51;;;;;;;15.82;8.32;;;0.60;99.90;;;;;;5025666;28;25539;-69
2022/12/15 08:58:17;;;;;;;16.60;9.23;;;0.60;99.90;;;;;;5034065;28;20036;-70
2022/12/15 09:00:43;;;;;;;17.75;9.63;;;0.50;99.90;;;;;;5028719;28;20594;-69
2022/12/15 09:03:08;;;;;;;19.73;9.20;;;0.50;99.90;;;;;;5029465;28;20029;-69
2022/12/15 09:05:36;;;;;;;16.58;8.60;;;0.40;99.90;;;;;;5033551;28;20458;-69
2022/12/15 09:08:01;;;;;;;19.75;9.43;;;0.40;99.90;;;;;;5026040;28;20092;-70
2022/12/15 09:10:27;;;;;;;16.23;8.52;;;0.60;99.90;;;;;;5025267;28;20029;-70
2022/12/15 09:12:53;;;;;;;13.32;7.18;;;0.40;99.90;;;;;;5024548;28;20581;-69
2022/12/15 09:15:19;;;;;;;14.30;7.35;;;0.40;99.90;;;;;;5034634;28;20039;-70
2022/12/15 09:17:44;;;;;;;17.55;7.35;;;0.40;99.90;;;;;;5031016;28;20025;-70
2022/12/15 09:20:10;;;;;;;14.63;7.80;;;0.60;99.90;;;;;;5026222;28;20662;-70
2022/12/15 09:22:36;;;;;;;17.80;8.05;;;0.60;99.90;;;;;;5024471;28;20510;-70
2022/12/15 09:25:02;;;;;;;13.95;8.57;;;0.60;99.90;;;;;;5028145;28;20116;-69
2022/12/15 09:27:29;;;;;;;16.55;9.55;;;0.60;99.90;;;;;;5024326;28;20026;-69
2022/12/15 09:29:56;;;;;;;14.55;7.95;;;0.70;99.90;;;;;;5038122;28;20652;-69
2022/12/15 09:32:21;;;;;;;14.50;8.23;;;0.80;99.90;;;;;;5032372;28;20083;-70
2022/12/15 09:34:49;;;;;;;13.18;8.07;;;0.70;99.90;;;;;;5025092;28;20057;-69
2022/12/15 09:37:15;;;;;;;16.23;8.00;;;0.60;99.90;;;;;;5038922;28;20048;-69
2022/12/15 09:39:40;;;;;;;15.63;8.75;;;0.50;99.90;;;;;;5041191;28;20032;-70
2022/12/15 09:42:24;;;;;;;14.32;8.75;;;0.80;99.90;;;;;;5024583;28;20026;-69
2022/12/15 09:45:08;;;;;;;11.63;7.80;;;0.70;99.90;;;;;;5024346;28;20087;-69
2022/12/15 09:47:38;;;;;;;20.13;9.75;;;0.90;99.90;;;;;;5032232;28;20132;-70
2022/12/15 09:50:09;;;;;;;16.23;10.30;;;1.10;99.90;;;;;;5031194;28;20034;-69
2022/12/15 09:52:50;;;;;;;17.15;10.30;;;1.10;99.90;;;;;;5024430;28;20039;-70
2022/12/15 09:55:27;;;;;;;17.27;9.73;;;1.00;99.90;;;;;;5034332;28;20511;-70
2022/12/15 09:58:00;;;;;;;15.15;7.68;;;1.10;99.90;;;;;;5028092;28;20422;-70
2022/12/15 10:00:38;;;;;;;17.80;7.97;;;1.00;99.90;;;;;;5031986;28;20033;-70
2022/12/15 10:03:33;;;;;;;17.30;8.32;;;0.90;99.90;;;;;;5032274;28;20030;-70
2022/12/15 10:06:17;;;;;;;15.27;7.78;;;1.00;99.90;;;;;;5029283;28;20049;-70
2022/12/15 10:08:43;;;;;;;15.70;8.02;;;1.00;99.90;;;;;;5034569;28;20029;-70
2022/12/15 10:11:20;;;;;;;15.70;7.80;;;1.00;99.90;;;;;;5039447;28;20401;-70
2022/12/15 10:14:10;;;;;;;12.50;7.03;;;1.00;99.90;;;;;;5035085;28;21569;-70
2022/12/15 10:16:57;;;;;;;11.20;6.43;;;0.90;99.90;;;;;;5037322;28;20029;-70
2022/12/15 10:19:32;;;;;;;13.52;7.00;;;1.00;99.90;;;;;;5025803;28;20030;-70
2022/12/15 10:21:58;;;;;;;11.80;6.43;;;1.00;99.90;;;;;;5024330;28;20111;-70
2022/12/15 10:24:29;;;;;;;14.63;7.05;;;1.00;99.90;;;;;;5025855;28;20033;-70
2022/12/15 10:27:24;;;;;;;11.93;7.05;;;1.10;99.90;;;;;;5032101;28;20037;-69
2022/12/15 10:29:58;;;;;;;;;;;1.10;99.90;;;;;;5031855;28;20636;-70
2022/12/15 10:32:29;;;;;;;34.60;17.13;;;1.10;99.90;;;;;;5037743;28;20012;-70
2022/12/15 10:34:55;;;;;;;17.30;10.18;;;1.30;99.90;;;;;;5033668;28;20064;-70
2022/12/15 10:37:21;;;;;;;13.48;7.85;;;1.30;99.90;;;;;;5034485;28;20899;-70
2022/12/15 10:39:49;;;;;;;13.77;7.63;;;1.30;99.90;;;;;;5036527;28;20064;-70
2022/12/15 10:42:23;;;;;;;12.10;7.68;;;1.40;99.90;;;;;;5035631;28;20548;-70
2022/12/15 10:44:55;;;;;;;15.75;6.85;;;1.40;99.90;;;;;;5028377;28;20026;-70
2022/12/15 10:47:25;;;;;;;18.67;7.88;;;1.50;99.90;;;;;;5033382;28;20045;-69
2022/12/15 10:49:51;;;;;;;12.52;7.72;;;1.50;99.90;;;;;;5024013;28;20041;-70
2022/12/15 10:52:31;;;;;;;15.27;7.68;;;1.50;99.90;;;;;;5038359;28;20037;-70
2022/12/15 10:54:56;;;;;;;13.27;6.57;;;1.50;99.90;;;;;;5026528;28;20038;-70
2022/12/15 10:57:29;;;;;;;13.68;7.32;;;1.60;99.90;;;;;;5032261;28;20112;-70
2022/12/15 11:00:17;;;;;;;14.32;8.07;;;1.60;99.90;;;;;;5032003;28;20120;-70
2022/12/15 11:02:43;;;;;;;11.57;6.82;;;1.80;99.90;;;;;;5022016;28;20065;-70
2022/12/15 11:05:14;;;;;;;13.70;7.78;;;1.80;99.90;;;;;;5028822;28;20037;-70
2022/12/15 11:08:14;;;;;;;14.20;7.55;;;1.80;99.90;;;;;;5038835;28;20029;-70
2022/12/15 11:13:39;;;;;;;14.05;7.25;;;2.10;99.90;;;;;;5041104;28;20075;-70
2022/12/15 11:16:16;;;;;;;12.65;7.22;;;2.20;99.90;;;;;;5034669;28;20033;-70
2022/12/15 11:18:48;;;;;;;12.05;6.90;;;2.30;99.90;;;;;;5042149;28;20037;-70
2022/12/15 11:21:16;;;;;;;10.60;6.15;;;2.20;99.90;;;;;;5066365;28;20029;-70
2022/12/15 11:24:00;;;;;;;12.82;5.68;;;2.30;99.90;;;;;;5067106;28;20054;-70
2022/12/15 11:26:45;;;;;;;11.70;6.57;;;2.40;99.90;;;;;;5067460;28;20037;-70
2022/12/15 11:29:23;;;;;;;;;;;2.60;99.90;;;;;;5067973;28;20417;-70
2022/12/15 11:31:51;;;;;;;8.27;5.55;;;2.70;99.90;;;;;;5063376;28;20533;-70
2022/12/15 11:34:23;;;;;;;10.05;4.68;;;2.80;99.90;;;;;;5050841;28;20646;-70
2022/12/15 11:37:07;;;;;;;8.65;4.25;;;2.60;99.90;;;;;;5048874;28;20597;-70
2022/12/15 11:39:52;;;;;;;7.28;4.00;;;2.50;99.90;;;;;;5031064;28;20501;-70
2022/12/15 11:42:23;;;;;;;9.80;5.00;;;2.50;99.90;;;;;;5031112;28;20026;-70
2022/12/15 11:45:16;;;;;;;10.15;4.78;;;2.60;99.90;;;;;;5031123;28;20499;-70
2022/12/15 11:47:55;;;;;;;10.73;4.82;;;2.50;99.90;;;;;;5031272;28;20104;-70
2022/12/15 11:50:32;;;;;;;6.35;3.95;;;2.50;99.90;;;;;;5031209;28;20472;-70
2022/12/15 11:53:11;;;;;;;10.57;4.25;;;2.70;99.90;;;;;;5031230;28;20124;-70
2022/12/15 11:55:57;;;;;;;6.45;3.50;;;2.70;99.90;;;;;;5030976;28;20471;-70
2022/12/15 11:58:51;;;;;;;6.95;3.63;;;2.60;99.70;;;;;;5030643;28;20017;-70
2022/12/15 12:01:42;;;;;;;9.02;4.80;;;2.40;99.90;;;;;;5032424;28;20119;-70
2022/12/15 12:04:28;;;;;;;9.23;4.60;;;2.40;99.90;;;;;;5049452;28;20033;-70
2022/12/15 12:07:02;;;;;;;10.68;4.82;;;2.30;99.90;;;;;;5050102;28;20458;-70
2022/12/15 12:09:39;;;;;;;8.10;4.93;;;2.40;99.90;;;;;;5050241;28;20025;-70
2022/12/15 12:12:28;;;;;;;12.65;5.50;;;2.40;99.90;;;;;;5049611;28;20033;-69
2022/12/15 12:15:17;;;;;;;9.88;5.45;;;2.50;99.90;;;;;;5048716;28;20056;-69
2022/12/15 12:17:48;;;;;;;11.50;6.22;;;2.60;99.90;;;;;;5047304;28;20057;-69
2022/12/15 12:20:37;;;;;;;12.27;5.88;;;2.50;99.90;;;;;;5026552;28;20386;-69
2022/12/15 12:23:13;;;;;;;11.88;6.05;;;2.50;99.90;;;;;;5039237;28;20507;-69
2022/12/15 12:25:55;;;;;;;11.68;5.72;;;2.60;99.90;;;;;;5024239;28;20479;-69
2022/12/15 12:28:34;;;;;;;12.35;5.88;;;2.80;99.90;;;;;;5031874;28;20398;-69
2022/12/15 12:31:02;;;;;;;13.30;7.55;;;2.70;99.90;;;;;;5032940;28;20025;-69
2022/12/15 12:33:50;;;;;;;15.68;7.30;;;2.60;99.90;;;;;;5024376;28;20026;-69
2022/12/15 12:36:16;;;;;;;15.23;7.85;;;2.70;99.90;;;;;;5031682;28;20029;-69
2022/12/15 12:38:48;;;;;;;14.07;8.27;;;2.60;99.90;;;;;;5030001;28;20517;-69
2022/12/15 12:41:32;;;;;;;11.95;6.88;;;2.70;99.90;;;;;;5036931;28;20494;-68
2022/12/15 12:44:28;;;;;;;13.90;7.63;;;2.60;99.90;;;;;;5035153;28;20047;-68
2022/12/15 12:46:57;;;;;;;13.52;6.72;;;2.70;99.90;;;;;;5028184;28;20303;-68
2022/12/15 12:49:41;;;;;;;12.63;6.13;;;2.80;99.90;;;;;;5042031;28;20033;-68
2022/12/15 12:52:21;;;;;;;13.10;6.03;;;2.80;99.90;;;;;;5026724;28;20063;-68
2022/12/15 12:54:59;;;;;;;11.15;6.25;;;2.90;99.90;;;;;;5029438;28;20078;-68
2022/12/15 12:57:44;;;;;;;13.00;6.45;;;2.90;99.90;;;;;;5029471;28;20122;-69
2022/12/15 13:00:14;;;;;;;14.65;6.05;;;2.90;99.90;;;;;;5026302;28;20029;-68
2022/12/15 13:02:53;;;;;;;11.07;5.55;;;3.00;99.90;;;;;;5043199;28;20033;-69
2022/12/15 13:05:26;;;;;;;11.25;6.15;;;3.00;99.90;;;;;;5022945;28;20108;-68
2022/12/15 13:08:09;;;;;;;12.77;6.60;;;3.00;99.90;;;;;;5026287;28;21097;-68
2022/12/15 13:10:36;;;;;;;14.80;6.65;;;2.90;99.90;;;;;;5034935;28;20128;-68
2022/12/15 13:13:17;;;;;;;14.77;7.15;;;2.80;99.90;;;;;;5031260;28;20091;-69
2022/12/15 13:15:48;;;;;;;14.15;7.63;;;2.80;99.90;;;;;;5035182;28;20035;-69
2022/12/15 13:18:14;;;;;;;13.23;7.53;;;2.70;99.90;;;;;;5027813;28;20372;-69
2022/12/15 13:20:42;;;;;;;12.60;7.25;;;2.80;99.90;;;;;;5027157;28;20029;-68
2022/12/15 13:23:23;;;;;;;13.40;7.60;;;2.80;99.90;;;;;;5024389;28;20537;-68
2022/12/15 13:25:51;;;;;;;11.73;5.95;;;2.90;99.90;;;;;;5027672;28;20041;-68
2022/12/15 13:28:30;;;;;;;12.48;7.10;;;2.90;99.90;;;;;;5021764;28;20060;-68
2022/12/15 13:31:24;;;;;;;14.48;8.02;;;2.80;99.90;;;;;;5034229;28;20029;-69
2022/12/15 13:33:49;;;;;;;12.95;7.18;;;2.60;99.90;;;;;;5022306;28;20033;-68
2022/12/15 13:36:36;;;;;;;15.75;8.75;;;2.70;99.90;;;;;;5030423;28;20421;-69
2022/12/15 13:39:04;;;;;;;20.83;10.52;;;2.70;99.90;;;;;;5024952;28;20029;-68
2022/12/15 13:41:29;;;;;;;17.13;9.73;;;2.70;99.90;;;;;;5022357;28;20043;-70
2022/12/15 13:43:57;;;;;;;16.40;9.80;;;2.80;99.90;;;;;;5023386;28;20033;-70
2022/12/15 13:46:26;;;;;;;15.48;8.38;;;2.90;99.90;;;;;;5027258;28;20507;-68
2022/12/15 13:49:03;;;;;;;14.90;8.52;;;2.80;99.90;;;;;;5032250;28;20031;-68
2022/12/15 13:51:33;;;;;;;16.40;9.02;;;2.70;99.90;;;;;;5024955;28;20268;-69
2022/12/15 13:54:08;;;;;;;22.30;8.90;;;2.70;99.90;;;;;;5038072;28;20040;-70
2022/12/15 13:56:44;;;;;;;16.23;8.52;;;2.70;99.90;;;;;;5022205;28;20044;-69
2022/12/15 13:59:41;;;;;;;13.00;7.10;;;2.70;99.90;;;;;;5023053;28;20364;-69
2022/12/15 14:02:22;;;;;;;15.90;7.70;;;2.60;99.90;;;;;;5028245;28;20021;-69
2022/12/15 14:05:16;;;;;;;22.15;6.72;;;2.60;99.90;;;;;;5022985;28;20116;-68
2022/12/15 14:07:53;;;;;;;12.35;7.00;;;2.60;99.90;;;;;;5020078;28;20021;-69
2022/12/15 14:10:37;;;;;;;13.05;6.03;;;2.70;99.90;;;;;;5024553;28;20037;-69
2022/12/15 14:13:29;;;;;;;15.05;7.45;;;2.70;99.90;;;;;;5031436;28;20033;-70
2022/12/15 14:16:13;;;;;;;13.10;6.75;;;2.70;99.90;;;;;;5025670;28;20038;-69
2022/12/15 14:18:41;;;;;;;11.98;7.13;;;2.70;99.90;;;;;;5023747;28;20025;-69
2022/12/15 14:21:19;;;;;;;15.63;8.15;;;2.70;99.90;;;;;;5030050;28;20029;-69
2022/12/15 14:23:45;;;;;;;14.98;7.60;;;2.70;99.90;;;;;;5027181;28;20570;-69
2022/12/15 14:26:12;;;;;;;20.33;10.85;;;2.70;99.90;;;;;;5034375;28;20063;-68
2022/12/15 14:28:44;;;;;;;17.10;9.07;;;2.70;99.90;;;;;;5025753;28;20033;-68
2022/12/15 14:31:18;;;;;;;15.48;8.63;;;2.70;99.90;;;;;;5025461;28;20099;-68
2022/12/15 14:33:46;;;;;;;13.05;7.55;;;2.70;99.90;;;;;;5024658;28;20541;-68
2022/12/15 14:36:14;;;;;;;12.85;6.90;;;2.70;99.90;;;;;;5034999;28;20036;-69
2022/12/15 14:38:52;;;;;;;11.48;6.70;;;2.60;99.90;;;;;;5029773;28;20029;-68
2022/12/15 14:41:21;;;;;;;11.55;6.40;;;2.60;99.90;;;;;;5028302;28;20037;-69
2022/12/15 14:43:48;;;;;;;14.10;7.07;;;2.60;99.90;;;;;;5028226;28;20026;-70
2022/12/15 14:46:16;;;;;;;12.93;8.23;;;2.50;99.90;;;;;;5026347;28;20045;-69
2022/12/15 14:49:10;;;;;;;11.32;6.93;;;2.60;99.90;;;;;;5029231;28;20064;-69
2022/12/15 14:51:43;;;;;;;20.77;7.45;;;2.60;99.90;;;;;;5019258;28;20053;-69
2022/12/15 14:54:35;;;;;;;17.05;7.35;;;2.60;99.90;;;;;;5028752;28;20131;-68
2022/12/15 14:57:19;;;;;;;15.20;6.43;;;2.60;99.90;;;;;;5030893;28;20168;-68
2022/12/15 14:59:47;;;;;;;23.88;9.15;;;2.50;99.90;;;;;;5025029;28;20025;-69
2022/12/15 15:02:23;;;;;;;46.60;22.15;;;2.60;99.90;;;;;;5034421;28;20383;-69
2022/12/15 15:05:03;;;;;;;19.95;9.18;;;2.50;99.90;;;;;;5026606;28;20513;-68
2022/12/15 15:07:31;;;;;;;16.13;8.30;;;2.40;99.90;;;;;;5033231;28;20029;-69
2022/12/15 15:09:58;;;;;;;18.52;7.30;;;2.40;99.90;;;;;;5036218;28;20068;-68
2022/12/15 15:12:38;;;;;;;16.25;8.27;;;2.40;99.90;;;;;;5032641;28;20041;-68
2022/12/15 15:15:05;;;;;;;12.77;6.50;;;2.50;99.90;;;;;;5031509;28;20028;-68
2022/12/15 15:17:49;;;;;;;14.15;7.88;;;2.70;99.90;;;;;;5035630;28;20399;-69
2022/12/15 15:20:25;;;;;;;14.52;7.07;;;2.50;99.90;;;;;;5033755;28;20040;-69
2022/12/15 15:23:06;;;;;;;14.05;7.70;;;2.30;99.90;;;;;;5026536;28;20045;-69
2022/12/15 15:25:37;;;;;;;17.17;7.95;;;2.30;99.90;;;;;;5039908;28;20049;-69
2022/12/15 15:28:18;;;;;;;13.77;9.30;;;2.20;99.90;;;;;;5037148;28;20020;-69
2022/12/15 15:30:49;;;;;;;15.63;8.65;;;2.10;99.90;;;;;;5034845;28;20026;-69
2022/12/15 15:33:15;;;;;;;11.95;7.15;;;2.00;99.90;;;;;;5035163;28;20545;-69
2022/12/15 15:35:43;;;;;;;14.15;8.48;;;1.90;99.90;;;;;;5021213;28;20057;-70
2022/12/15 15:38:21;;;;;;;13.75;8.60;;;1.90;99.90;;;;;;5038242;28;20032;-70
2022/12/15 15:40:53;;;;;;;13.35;7.97;;;1.80;99.90;;;;;;5030210;28;20589;-70